TAF KAIA
KAIA 280520Z 2806/2906 23006KT P6SM SCT200 FM281500 28015G25KT P6SM SCT200 FM290000 27010KT P6SM SKC=
METAR KAIA
WC KAIA
WS KAIA
WV KAIA